Aeroporto :
LOGIN :

Iscrizione | Disclaimer

   EN    FR    IT 

 










Sommario :    VFR   VFR Marginale   IFR   IFR Intensivo   IFR Molto Intensivo
Visibilità : 
Base nubi : 
>= 8 km
>= 3000ft
5 / 8 km
1000 / 3000 ft
1500m / 5 km
500 / 1000 ft
800 / 1500m
200 / 500 ft
< 800m
< 200 ft
Simboli :   Temporali  Nebbia  Neve Forte  Precipitazioni Forti  Vento > 20 kt
SIGMETs :   Varie  Temporali  Ghiacco  Turbolenza  Onda orograficha  Ceneri Vulcaniche






- Altitudine del aeroporto : 776 ft
- Codice IATA : RMS


ETAR - Ramstein Air Base

ULTIMO METAR :
  • 220405Z 05005KT 9999 BKN012 BKN021 BKN120 14/14 A2988 RMK AO2A CIG 021V120 BKN021 V SCT SLP114 FZRANO $

METARs OBSOLETI :
  • 220346Z AUTO 06006KT 9999 FEW012 SCT019 BKN120 14/14 A2987 RMK AO2 SLP110 FZRANO $
  • 220341Z AUTO 06006KT 9999 SCT012 BKN019 OVC120 14/14 A2987 RMK AO2 CIG 012V120 BKN V SCT CIG 018 RWY26 SLP110 FZRANO $
  • 220256Z 06008KT 9999 OVC014 14/14 A2986 RMK AO2A CIG 013 RWY26 SLP107 T01440144 55005 FZRANO $
  • 220216Z 05006KT 9999 SCT008 OVC013 14/14 A2987 RMK AO2A CIG 008V013 SLP110 FZRANO $
  • 220156Z 07003KT 9999 OVC009 14/14 A2988 RMK AO2A SLP114 T01430143 FZRANO $

TAF TAF ETAR
Valido dal 22 a 02 ore il 23 a 08 ore UTC


220200Z 2202/2308 04009KT 9999 BKN015 QNH2984INS
TEMPO 2202/2205 9000 -SHRA BKN008
BECMG 2205/2206 04010G15KT 9000 -SHRA BKN025 510004 QNH2990INS
TEMPO 2212/2218 05015G25KT 6000 -TSRA BKN015CB
BECMG 2217/2218 03009KT 9000 -SHRA BKN025 QNH3000INS
BECMG 2220/2221 03009KT 9999 NSW BKN015 QNH3002INS TX20/2215Z TN14/2204Z



MetMap, La meteo Aeronautica in un colpo d'occhio ! - Copyright ORBIFLY Dicembre 2007 - Disclaimer

ORBIFLY MET'MAP TEAM :

Programmazione e sviluppo : Alexandra Zaïnal
Concezione : Baudouin d'Aumeries
Aiuto per la programmazione : Marc-Olivier Méhu
Supporto tecnico e logistico : Manuel Goepfert
Aiuto per la traduzione : Arnaldo La Scala

Contatto : metmap@orbifly.com




FONTI E CREDITI :

   NOAA